Time;durP1;ratioP1;P1;durP2;ratioP2;P2;SDS_P1;SDS_P2;PMS_P1;PMS_P2;Temp;Humidity;BMP_temperature;BMP_pressure;BME280_temperature;BME280_humidity;BME280_pressure;Samples;Min_cycle;Max_cycle;Signal;HPM_P1;HPM_P2
2021/11/13 00:02:22;;;;;;;;;24.25;23.25;;;;;12.18;94.95;101116.66;5062003;28;45435;-64
2021/11/13 00:04:48;;;;;;;;;25.00;22.50;;;;;12.22;94.55;101107.03;5061818;28;45357;-64
2021/11/13 00:07:13;;;;;;;;;31.00;20.50;;;;;12.22;94.40;101099.22;5061677;28;45317;-64
2021/11/13 00:09:39;;;;;;;;;28.50;22.75;;;;;12.24;94.09;101106.09;5061384;28;45593;-64
2021/11/13 00:12:05;;;;;;;;;31.25;22.50;;;;;12.28;94.08;101107.69;5061679;28;45361;-63
2021/11/13 00:14:32;;;;;;;;;28.25;25.00;;;;;12.26;94.20;101101.69;5061756;28;45352;-64
2021/11/13 00:16:58;;;;;;;;;25.50;23.25;;;;;12.30;93.90;101107.66;5061621;28;45385;-64
2021/11/13 00:19:24;;;;;;;;;29.75;26.75;;;;;12.31;94.02;101110.22;5047744;28;46958;-64
2021/11/13 00:21:49;;;;;;;;;24.25;20.50;;;;;12.30;93.78;101100.69;5060888;28;45291;-64
2021/11/13 00:24:15;;;;;;;;;28.00;24.00;;;;;12.34;93.75;101104.91;5050459;28;45275;-64
2021/11/13 00:26:40;;;;;;;;;28.25;23.50;;;;;12.33;93.49;101095.38;5061501;28;45237;-64
2021/11/13 00:29:06;;;;;;;;;29.50;21.75;;;;;12.39;93.22;101092.59;5061167;28;45508;-64
2021/11/13 00:31:32;;;;;;;;;22.75;21.75;;;;;12.45;92.87;101095.03;5061450;28;45254;-64
2021/11/13 00:33:58;;;;;;;;;27.00;20.75;;;;;12.50;92.65;101092.28;5061434;28;45299;-64
2021/11/13 00:36:24;;;;;;;;;28.00;19.00;;;;;12.55;92.29;101092.16;5060535;28;45537;-64
2021/11/13 00:38:50;;;;;;;;;26.25;21.75;;;;;12.57;91.97;101091.19;5061102;28;45656;-64
2021/11/13 00:41:15;;;;;;;;;27.75;21.75;;;;;12.59;91.69;101086.78;5061315;28;45399;-64
2021/11/13 00:43:41;;;;;;;;;27.75;23.25;;;;;12.61;91.67;101074.56;5060339;28;45308;-64
2021/11/13 00:46:07;;;;;;;;;26.50;19.25;;;;;12.55;91.28;101079.09;5057933;28;45471;-64
2021/11/13 00:48:32;;;;;;;;;20.25;18.75;;;;;12.61;91.44;101087.59;5059749;28;47033;-64
2021/11/13 00:50:57;;;;;;;;;29.00;21.00;;;;;12.61;91.13;101087.59;5060376;28;45240;-64
2021/11/13 00:53:23;;;;;;;;;21.75;20.50;;;;;12.60;91.20;101074.59;5053183;28;45893;-64
2021/11/13 00:55:48;;;;;;;;;21.00;17.75;;;;;12.59;90.87;101085.94;5060192;28;45501;-64
2021/11/13 00:58:14;;;;;;;;;27.75;19.50;;;;;12.59;90.84;101096.34;5057975;28;46529;-63
2021/11/13 01:00:40;;;;;;;;;21.75;17.00;;;;;12.59;91.05;101101.56;5048257;28;45224;-63
2021/11/13 01:03:05;;;;;;;;;25.00;15.25;;;;;12.59;90.83;101097.22;5061032;28;45278;-63
2021/11/13 01:05:31;;;;;;;;;20.00;17.00;;;;;12.60;91.07;101087.63;5060578;28;45264;-63
2021/11/13 01:07:57;;;;;;;;;21.00;18.00;;;;;12.60;90.91;101091.09;5060890;28;46043;-66
2021/11/13 01:10:22;;;;;;;;;20.25;19.75;;;;;12.60;90.75;101082.41;5057435;28;45426;-63
2021/11/13 01:12:50;;;;;;;;;25.75;17.75;;;;;12.60;90.80;101085.03;5060162;28;45283;-63
2021/11/13 01:15:18;;;;;;;;;23.75;18.50;;;;;12.60;91.07;101090.25;5060608;28;45321;-63
2021/11/13 01:17:43;;;;;;;;;20.00;13.25;;;;;12.63;90.86;101084.97;5059806;28;46135;-63
2021/11/13 01:20:12;;;;;;;;;18.75;16.00;;;;;12.63;90.94;101085.81;5060612;28;45333;-63
2021/11/13 01:22:39;;;;;;;;;27.00;20.50;;;;;12.65;90.90;101089.22;5060528;28;45438;-63
2021/11/13 01:25:06;;;;;;;;;24.75;18.25;;;;;12.66;90.83;101088.31;5048661;28;45296;-63
2021/11/13 01:27:31;;;;;;;;;22.25;16.50;;;;;12.65;91.55;101086.63;5059930;28;45299;-63
2021/11/13 01:29:57;;;;;;;;;24.50;19.25;;;;;12.66;91.44;101085.72;5060466;28;45382;-63
2021/11/13 01:32:22;;;;;;;;;21.25;13.00;;;;;12.61;91.74;101081.53;5060588;28;45497;-63
2021/11/13 01:34:48;;;;;;;;;19.50;15.50;;;;;12.59;92.92;101092.00;5058902;28;45540;-64
2021/11/13 01:37:14;;;;;;;;;19.50;14.50;;;;;12.54;92.60;101082.63;5058158;28;47453;-63
2021/11/13 01:39:39;;;;;;;;;24.00;17.25;;;;;12.51;93.41;101091.38;5060539;28;45290;-63
2021/11/13 01:42:05;;;;;;;;;21.50;15.25;;;;;12.44;93.85;101098.53;5060763;28;45321;-63
2021/11/13 01:44:32;;;;;;;;;19.00;15.00;;;;;12.47;93.87;101095.84;5059575;28;45538;-63
2021/11/13 01:46:57;;;;;;;;;18.00;13.00;;;;;12.39;94.58;101084.78;5059445;28;45328;-63
2021/11/13 01:49:23;;;;;;;;;15.00;12.00;;;;;12.35;94.95;101077.09;5060244;28;45470;-63
2021/11/13 01:51:49;;;;;;;;;10.00;9.00;;;;;12.36;95.21;101079.66;5060076;28;45260;-63
2021/11/13 01:54:17;;;;;;;;;14.50;11.75;;;;;12.31;96.31;101076.34;5053946;28;45260;-66
2021/11/13 01:56:43;;;;;;;;;18.00;13.25;;;;;12.31;95.27;101062.44;5059694;28;47305;-66
2021/11/13 01:59:10;;;;;;;;;25.00;19.50;;;;;12.34;95.31;101068.44;5060341;28;45810;-66
2021/11/13 02:01:37;;;;;;;;;24.25;22.25;;;;;12.33;95.05;101058.91;5051567;28;45271;-65
2021/11/13 02:04:04;;;;;;;;;22.50;19.75;;;;;12.35;95.25;101062.31;5060179;28;45346;-65
2021/11/13 02:06:31;;;;;;;;;21.75;17.00;;;;;12.38;94.76;101062.22;5059445;28;46418;-65
2021/11/13 02:08:56;;;;;;;;;23.75;17.50;;;;;12.38;95.15;101059.59;5060192;28;45202;-65
2021/11/13 02:11:24;;;;;;;;;22.75;17.50;;;;;12.39;94.71;101063.06;5059818;28;45473;-65
2021/11/13 02:13:51;;;;;;;;;12.75;7.50;;;;;12.41;95.22;101062.16;5060253;28;45267;-65
2021/11/13 02:16:17;;;;;;;;;18.75;17.00;;;;;12.43;94.85;101052.53;5059551;28;45300;-65
2021/11/13 02:18:43;;;;;;;;;16.00;13.75;;;;;12.44;95.12;101059.44;5059457;28;45394;-66
2021/11/13 02:21:10;;;;;;;;;15.00;12.00;;;;;12.43;94.70;101064.72;5059708;28;45386;-66
2021/11/13 02:23:37;;;;;;;;;17.50;12.75;;;;;12.37;94.49;101057.06;5053148;28;46055;-66
2021/11/13 02:26:03;;;;;;;;;20.75;12.25;;;;;12.41;94.64;101067.38;5054349;28;45979;-66
2021/11/13 02:28:29;;;;;;;;;7.25;7.25;;;;;12.42;94.43;101078.66;5060060;28;45259;-66
2021/11/13 02:30:57;;;;;;;;;20.00;12.75;;;;;12.42;94.21;101069.06;5059552;28;45225;-66
2021/11/13 02:33:24;;;;;;;;;22.50;15.50;;;;;12.47;94.20;101067.16;5059928;28;45352;-65
2021/11/13 02:35:53;;;;;;;;;22.25;13.75;;;;;12.48;94.30;101068.03;5058626;28;46005;-65
2021/11/13 02:38:32;;;;;;;;;12.50;11.25;;;;;12.45;93.92;101068.97;5059975;28;45291;-65
2021/11/13 02:41:00;;;;;;;;;19.50;14.00;;;;;12.45;94.11;101060.31;5059429;28;45342;-65
2021/11/13 02:43:28;;;;;;;;;18.50;14.75;;;;;12.48;94.00;101060.19;5059720;28;45472;-65
2021/11/13 02:45:55;;;;;;;;;16.00;13.00;;;;;12.47;94.20;101043.72;5057317;28;46514;-65
2021/11/13 02:48:23;;;;;;;;;14.25;11.50;;;;;12.51;93.59;101057.50;5059714;28;45822;-64
2021/11/13 02:50:49;;;;;;;;;22.00;13.25;;;;;12.48;93.51;101055.84;5059155;28;45476;-64
2021/11/13 02:53:18;;;;;;;;;16.00;11.75;;;;;12.52;93.54;101061.81;5054439;28;45332;-64
2021/11/13 02:55:43;;;;;;;;;16.25;13.25;;;;;12.54;93.28;101048.72;5058441;28;45250;-64
2021/11/13 02:58:09;;;;;;;;;16.50;11.75;;;;;12.53;93.51;101050.47;5059468;28;45252;-64
2021/11/13 03:00:37;;;;;;;;;18.50;12.75;;;;;12.53;93.21;101052.22;5059356;28;46158;-63
2021/11/13 03:03:02;;;;;;;;;16.25;11.75;;;;;12.51;93.23;101047.06;5059403;28;45242;-64
2021/11/13 03:05:43;;;;;;;;;11.50;11.00;;;;;12.54;93.22;101051.34;5045179;28;46126;-64
2021/11/13 03:08:09;;;;;;;;;10.25;8.00;;;;;12.53;93.32;101053.09;5059194;28;45363;-64
2021/11/13 03:10:36;;;;;;;;;18.25;13.50;;;;;12.53;93.01;101040.06;5059252;28;45677;-64
2021/11/13 03:13:02;;;;;;;;;13.00;11.00;;;;;12.51;93.12;101034.03;5059105;28;45393;-64
2021/11/13 03:15:28;;;;;;;;;17.75;12.00;;;;;12.54;93.39;101052.19;5059079;28;45476;-64
2021/11/13 03:17:56;;;;;;;;;18.25;13.25;;;;;12.56;93.28;101045.16;5056927;28;45379;-64
2021/11/13 03:20:26;;;;;;;;;17.00;14.00;;;;;12.57;93.64;101043.41;5048212;28;45315;-64
2021/11/13 03:22:53;;;;;;;;;15.25;9.50;;;;;12.53;93.41;101034.00;5058582;28;45418;-63
2021/11/13 03:25:21;;;;;;;;;19.50;12.25;;;;;12.52;93.27;101024.47;5048645;28;46245;-64
2021/11/13 03:27:53;;;;;;;;;17.25;10.75;;;;;12.57;93.19;101041.66;5058730;28;45220;-65
2021/11/13 03:30:22;;;;;;;;;17.00;11.50;;;;;12.60;93.18;101046.78;5059119;28;45355;-65
2021/11/13 03:32:48;;;;;;;;;16.00;10.00;;;;;12.60;92.87;101046.78;5058826;28;45492;-67
2021/11/13 03:35:16;;;;;;;;;12.50;11.50;;;;;12.60;92.92;101041.56;5059194;28;46305;-66
2021/11/13 03:37:42;;;;;;;;;10.00;8.25;;;;;12.56;93.02;101044.31;5061962;28;45364;-66
2021/11/13 03:40:09;;;;;;;;;14.50;11.25;;;;;12.59;92.90;101039.00;5062692;28;45417;-66
2021/11/13 03:42:35;;;;;;;;;11.50;11.00;;;;;12.60;92.83;101038.94;5061635;28;45362;-66
2021/11/13 03:45:01;;;;;;;;;11.75;11.00;;;;;12.62;92.61;101037.19;5061431;28;46119;-66
2021/11/13 03:47:27;;;;;;;;;12.25;9.00;;;;;12.63;92.81;101043.25;5061429;28;45312;-66
2021/11/13 03:49:53;;;;;;;;;12.75;12.00;;;;;12.66;92.73;101037.94;5062505;28;45192;-66
2021/11/13 03:52:19;;;;;;;;;10.25;8.75;;;;;12.65;92.68;101033.63;5061695;28;45489;-66
2021/11/13 03:54:44;;;;;;;;;10.25;5.00;;;;;12.65;92.91;101049.25;5056208;28;46002;-66
2021/11/13 03:57:10;;;;;;;;;14.25;13.00;;;;;12.62;92.84;101034.56;5061737;28;45215;-67
2021/11/13 03:59:35;;;;;;;;;12.00;10.50;;;;;12.63;93.10;101040.63;5062281;28;45245;-65
2021/11/13 04:02:01;;;;;;;;;12.25;4.75;;;;;12.61;93.04;101039.81;5061780;28;45481;-65
2021/11/13 04:04:26;;;;;;;;;11.00;9.00;;;;;12.65;92.85;101044.06;5062048;28;46238;-65
2021/11/13 04:06:52;;;;;;;;;8.00;7.25;;;;;12.68;92.94;101052.63;5055619;28;45362;-65
2021/11/13 04:09:17;;;;;;;;;9.50;5.75;;;;;12.66;92.93;101046.59;5062003;28;45326;-65
2021/11/13 04:11:43;;;;;;;;;11.00;10.75;;;;;12.66;92.86;101046.59;5061323;28;45497;-65
2021/11/13 04:14:09;;;;;;;;;11.75;8.75;;;;;12.66;92.96;101049.22;5061983;28;45318;-64
2021/11/13 04:16:34;;;;;;;;;9.75;8.00;;;;;12.66;93.15;101061.41;5061528;28;45277;-65
2021/11/13 04:18:59;;;;;;;;;10.50;7.25;;;;;12.65;92.96;101050.13;5061403;28;45497;-65
2021/11/13 04:21:25;;;;;;;;;8.00;5.00;;;;;12.64;93.10;101050.16;5060987;28;45437;-67
2021/11/13 04:23:52;;;;;;;;;7.50;5.25;;;;;12.64;93.40;101048.41;5052657;28;45514;-66
2021/11/13 04:26:17;;;;;;;;;6.50;6.50;;;;;12.69;92.94;101056.09;5058687;28;45720;-66
2021/11/13 04:28:43;;;;;;;;;8.50;6.00;;;;;12.69;93.01;101056.94;5061914;28;45414;-66
2021/11/13 04:31:08;;;;;;;;;12.50;5.50;;;;;12.69;93.26;101050.88;5061114;28;45241;-68
2021/11/13 04:33:34;;;;;;;;;8.75;6.00;;;;;12.69;93.09;101046.50;5061023;28;45611;-68
2021/11/13 04:36:18;;;;;;;;;5.75;5.00;;;;;12.74;93.01;101042.00;5060181;28;45311;-67
2021/11/13 04:38:43;;;;;;;;;5.00;4.25;;;;;12.75;92.78;101048.06;5061613;28;45401;-67
2021/11/13 04:41:09;;;;;;;;;6.25;4.25;;;;;12.70;92.94;101048.22;5061342;28;45459;-67
2021/11/13 04:43:35;;;;;;;;;8.00;5.25;;;;;12.67;92.94;101045.69;5061722;28;45160;-66
2021/11/13 04:46:00;;;;;;;;;5.25;4.25;;;;;12.64;93.21;101051.03;5059805;28;45417;-65
2021/11/13 04:48:26;;;;;;;;;8.00;4.75;;;;;12.62;93.31;101044.16;5060640;28;45226;-66
2021/11/13 04:50:52;;;;;;;;;8.75;7.25;;;;;12.63;93.49;101048.47;5060932;28;45469;-66
2021/11/13 04:53:17;;;;;;;;;6.50;6.00;;;;;12.61;93.42;101045.88;5055818;28;45369;-66
2021/11/13 04:55:42;;;;;;;;;7.25;5.00;;;;;12.63;93.78;101043.25;5059883;28;45244;-65
2021/11/13 04:58:08;;;;;;;;;6.25;4.00;;;;;12.65;93.33;101046.66;5061523;28;45481;-65
2021/11/13 05:00:34;;;;;;;;;5.75;5.75;;;;;12.67;93.83;101047.47;5060773;28;45501;-65
2021/11/13 05:03:00;;;;;;;;;9.00;5.00;;;;;12.64;94.04;101056.22;5061030;28;46444;-65
2021/11/13 05:05:27;;;;;;;;;5.00;4.00;;;;;12.61;94.64;101056.31;5059260;28;45795;-65
2021/11/13 05:07:52;;;;;;;;;9.00;4.00;;;;;12.62;94.32;101065.00;5061271;28;45305;-65
2021/11/13 05:10:18;;;;;;;;;5.50;3.75;;;;;12.61;94.73;101068.47;5054045;28;45621;-65
2021/11/13 05:12:44;;;;;;;;;8.50;5.50;;;;;12.59;94.40;101059.88;5060692;28;45271;-65
2021/11/13 05:15:10;;;;;;;;;5.00;5.00;;;;;12.56;94.63;101055.59;5060426;28;45771;-64
2021/11/13 05:17:37;;;;;;;;;5.00;3.00;;;;;12.54;94.87;101054.78;5060989;28;45268;-64
2021/11/13 05:20:07;;;;;;;;;1.00;1.00;;;;;12.52;95.19;101055.75;5055122;28;45573;-65
2021/11/13 05:22:34;;;;;;;;;8.25;4.25;;;;;12.51;95.16;101054.03;5052691;28;46635;-63
2021/11/13 05:25:00;;;;;;;;;7.25;4.00;;;;;12.49;95.48;101062.75;5049228;28;45455;-63
2021/11/13 05:27:25;;;;;;;;;3.75;2.50;;;;;12.51;95.58;101061.88;5060691;28;45273;-65
2021/11/13 05:29:50;;;;;;;;;8.00;4.50;;;;;12.54;95.14;101061.75;5060725;28;45536;-64
2021/11/13 05:32:16;;;;;;;;;4.00;4.00;;;;;12.53;95.05;101068.72;5060656;28;46149;-66
2021/11/13 05:34:42;;;;;;;;;4.00;3.00;;;;;12.59;95.04;101067.69;5060680;28;45492;-64
2021/11/13 05:37:07;;;;;;;;;8.50;5.25;;;;;12.61;94.86;101071.09;5059938;28;45255;-63
2021/11/13 05:39:36;;;;;;;;;3.00;3.00;;;;;12.61;95.32;101076.31;5060296;28;45247;-63
2021/11/13 05:42:01;;;;;;;;;3.50;2.50;;;;;12.58;95.29;101064.22;5060139;28;45464;-64
2021/11/13 05:44:26;;;;;;;;;4.50;4.50;;;;;12.59;94.89;101065.06;5059578;28;45614;-64
2021/11/13 05:46:54;;;;;;;;;6.00;5.75;;;;;12.57;94.92;101059.06;5059886;28;45394;-64
2021/11/13 05:49:19;;;;;;;;;2.75;2.75;;;;;12.62;95.10;101068.47;5059362;28;45462;-65
2021/11/13 05:51:45;;;;;;;;;6.00;4.25;;;;;12.60;94.98;101064.16;5059956;28;45300;-64
2021/11/13 05:54:10;;;;;;;;;4.50;3.50;;;;;12.60;94.82;101072.00;5052872;28;45313;-65
2021/11/13 05:56:36;;;;;;;;;4.00;4.00;;;;;12.62;95.08;101073.69;5060241;28;45299;-64
2021/11/13 05:59:02;;;;;;;;;2.50;2.50;;;;;12.60;94.75;101072.00;5060111;28;45283;-64
2021/11/13 06:01:27;;;;;;;;;4.50;3.00;;;;;12.63;94.65;101072.78;5059930;28;45450;-64
2021/11/13 06:03:52;;;;;;;;;3.50;3.50;;;;;12.63;94.63;101061.50;5060099;28;45609;-63
2021/11/13 06:06:18;;;;;;;;;4.50;2.25;;;;;12.66;94.65;101067.47;5060056;28;45308;-63
2021/11/13 06:08:43;;;;;;;;;2.00;2.00;;;;;12.66;94.72;101070.06;5059281;28;45387;-63
2021/11/13 06:11:09;;;;;;;;;2.75;2.00;;;;;12.64;94.44;101069.28;5057162;28;45567;-63
2021/11/13 06:13:35;;;;;;;;;5.25;3.75;;;;;12.62;94.43;101070.22;5049097;28;45363;-69
2021/11/13 06:16:02;;;;;;;;;7.50;3.00;;;;;12.63;94.62;101066.72;5059972;28;45245;-63
2021/11/13 06:18:28;;;;;;;;;2.00;2.00;;;;;12.60;95.05;101064.16;5052943;28;45497;-63
2021/11/13 06:20:53;;;;;;;;;7.00;2.00;;;;;12.53;94.91;101062.66;5052859;28;45435;-64
2021/11/13 06:23:19;;;;;;;;;2.25;2.25;;;;;12.53;95.68;101071.34;5055783;28;45288;-63
2021/11/13 06:25:44;;;;;;;;;2.25;2.00;;;;;12.48;95.52;101068.03;5053213;28;45228;-62
2021/11/13 06:28:09;;;;;;;;;3.00;3.00;;;;;12.46;96.12;101078.50;5060119;28;45226;-62
2021/11/13 06:30:35;;;;;;;;;1.00;1.00;;;;;12.42;96.50;101074.28;5059439;28;45426;-62
2021/11/13 06:33:00;;;;;;;;;3.00;2.00;;;;;12.40;97.35;101078.66;5060076;28;45302;-62
2021/11/13 06:35:26;;;;;;;;;2.50;2.50;;;;;12.38;98.01;101080.47;5059704;28;45502;-64
2021/11/13 06:37:51;;;;;;;;;4.50;2.25;;;;;12.37;97.67;101089.19;5059619;28;45555;-64
2021/11/13 06:40:18;;;;;;;;;1.25;1.00;;;;;12.35;98.17;101090.13;5059399;28;45453;-64
2021/11/13 06:42:43;;;;;;;;;3.50;1.75;;;;;12.30;98.55;101090.28;5059965;28;45745;-65
2021/11/13 06:45:11;;;;;;;;;2.75;1.25;;;;;12.30;98.54;101092.88;5058891;28;45445;-65
2021/11/13 06:47:37;;;;;;;;;1.00;1.00;;;;;12.27;98.76;101095.56;5058706;28;45446;-64
2021/11/13 06:50:04;;;;;;;;;4.00;2.25;;;;;12.26;99.17;101093.00;5058123;28;46303;-65
2021/11/13 06:52:30;;;;;;;;;2.75;1.00;;;;;12.25;98.84;101092.16;5058455;28;47458;-64
2021/11/13 06:54:55;;;;;;;;;1.00;1.00;;;;;12.23;100.00;101093.09;5051446;28;45585;-64
2021/11/13 06:57:21;;;;;;;;;3.00;2.00;;;;;12.20;100.00;101094.00;5058253;28;45213;-64
2021/11/13 06:59:46;;;;;;;;;1.00;1.00;;;;;12.18;100.00;101096.66;5059328;28;46209;-64
2021/11/13 07:02:11;;;;;;;;;1.25;1.25;;;;;12.12;100.00;101093.41;5059116;28;45399;-64
2021/11/13 07:04:37;;;;;;;;;3.50;2.25;;;;;12.09;100.00;101096.94;5054827;28;45405;-64
2021/11/13 07:07:03;;;;;;;;;2.00;0.50;;;;;12.07;100.00;101106.56;5057920;28;45337;-64
2021/11/13 07:09:29;;;;;;;;;0.50;0.00;;;;;12.06;100.00;101104.84;5059141;28;46453;-64
2021/11/13 07:11:54;;;;;;;;;1.75;1.75;;;;;12.08;100.00;101110.00;5061189;28;45389;-64
2021/11/13 07:14:20;;;;;;;;;2.00;2.00;;;;;12.07;100.00;101122.19;5055316;28;45766;-64
2021/11/13 07:16:45;;;;;;;;;3.75;1.25;;;;;12.11;100.00;101128.16;5061269;28;45303;-64
2021/11/13 07:19:11;;;;;;;;;2.25;1.25;;;;;12.15;100.00;101128.03;5062008;28;45544;-64
2021/11/13 07:21:40;;;;;;;;;3.50;2.00;;;;;12.19;100.00;101131.41;5062210;28;45348;-64
2021/11/13 07:24:07;;;;;;;;;3.00;1.00;;;;;12.24;100.00;101139.97;5052163;28;45232;-64
2021/11/13 07:26:33;;;;;;;;;1.00;1.00;;;;;12.28;100.00;101143.34;5061342;28;45705;-64
2021/11/13 07:29:04;;;;;;;;;3.25;2.00;;;;;12.27;99.94;101142.47;5062480;28;46490;-64
2021/11/13 07:31:29;;;;;;;;;1.50;1.00;;;;;12.30;100.00;101146.75;5060826;28;45811;-64
2021/11/13 07:33:55;;;;;;;;;3.75;1.00;;;;;12.31;100.00;101148.44;5062618;28;45398;-64
2021/11/13 07:36:21;;;;;;;;;3.00;1.00;;;;;12.29;100.00;101151.09;5061607;28;45406;-64
2021/11/13 07:38:46;;;;;;;;;1.75;1.75;;;;;12.25;100.00;101152.09;5062155;28;45361;-64
2021/11/13 07:41:12;;;;;;;;;2.75;1.00;;;;;12.28;100.00;101165.03;5062060;28;45532;-63
2021/11/13 07:43:39;;;;;;;;;4.00;1.00;;;;;12.28;100.00;101164.19;5063204;28;45263;-64
2021/11/13 07:46:05;;;;;;;;;3.00;1.25;;;;;12.29;100.00;101166.75;5060573;28;45595;-64
2021/11/13 07:48:31;;;;;;;;;1.00;1.00;;;;;12.29;100.00;101155.47;5062063;28;46318;-64
2021/11/13 07:50:57;;;;;;;;;0.00;0.00;;;;;12.30;100.00;101168.44;5060417;28;45342;-64
2021/11/13 07:53:23;;;;;;;;;3.00;1.75;;;;;12.35;100.00;101166.56;5055218;28;45363;-64
2021/11/13 07:55:48;;;;;;;;;1.25;1.25;;;;;12.41;100.00;101170.75;5061636;28;45275;-64
2021/11/13 07:58:16;;;;;;;;;0.00;0.00;;;;;12.44;100.00;101173.28;5062258;28;46273;-64
2021/11/13 08:00:42;;;;;;;;;1.00;0.75;;;;;12.45;100.00;101160.22;5061715;28;45487;-64
2021/11/13 08:03:08;;;;;;;;;0.00;0.00;;;;;12.53;100.00;101169.56;5062117;28;45263;-64
2021/11/13 08:05:33;;;;;;;;;1.00;1.00;;;;;12.60;99.67;101182.34;5061771;28;45445;-64
2021/11/13 08:07:58;;;;;;;;;1.50;1.00;;;;;12.60;99.99;101174.53;5061942;28;45327;-64
2021/11/13 08:10:24;;;;;;;;;1.00;1.00;;;;;12.63;99.91;101176.22;5061669;28;45330;-64
2021/11/13 08:12:50;;;;;;;;;1.00;1.00;;;;;12.63;99.73;101182.28;5057430;28;45525;-64
2021/11/13 08:15:17;;;;;;;;;0.00;0.00;;;;;12.62;99.31;101184.94;5061784;28;45330;-64
2021/11/13 08:17:43;;;;;;;;;1.00;1.00;;;;;12.63;99.50;101181.44;5057151;28;47313;-64
2021/11/13 08:20:11;;;;;;;;;0.00;0.00;;;;;12.64;99.79;101176.19;5048256;28;45374;-64
2021/11/13 08:22:36;;;;;;;;;0.00;0.00;;;;;12.66;99.66;101186.56;5060455;28;45558;-64
2021/11/13 08:25:08;;;;;;;;;2.50;1.00;;;;;12.70;99.51;101182.97;5048810;28;45382;-64
2021/11/13 08:27:34;;;;;;;;;0.75;0.75;;;;;12.75;98.92;101176.69;5060903;28;46255;-64
2021/11/13 08:30:00;;;;;;;;;1.75;1.50;;;;;12.77;98.91;101185.34;5061644;28;45271;-61
2021/11/13 08:32:25;;;;;;;;;3.75;3.75;;;;;12.78;98.74;101191.41;5061091;28;45245;-60
2021/11/13 08:34:51;;;;;;;;;2.75;2.00;;;;;12.80;98.78;101184.38;5061617;28;45521;-59
2021/11/13 08:37:17;;;;;;;;;1.25;1.25;;;;;12.83;98.58;101199.13;5060658;28;46079;-62
2021/11/13 08:39:42;;;;;;;;;1.25;1.25;;;;;12.86;98.62;101199.88;5061407;28;45425;-61
2021/11/13 08:42:11;;;;;;;;;2.00;2.00;;;;;12.88;98.68;101199.81;5059338;28;45516;-61
2021/11/13 08:44:45;;;;;;;;;2.00;2.00;;;;;12.94;98.46;101197.88;5060278;28;45157;-60
2021/11/13 08:47:11;;;;;;;;;2.75;2.75;;;;;13.00;97.97;101205.50;5057914;28;48064;-60
2021/11/13 08:49:39;;;;;;;;;3.50;2.00;;;;;13.00;97.99;101208.13;5057344;28;45271;-60
2021/11/13 08:52:05;;;;;;;;;5.50;3.50;;;;;13.04;98.08;101208.91;5050688;28;45441;-59
2021/11/13 08:54:32;;;;;;;;;5.75;3.00;;;;;13.08;97.77;101200.94;5049565;28;45469;-59
2021/11/13 08:56:58;;;;;;;;;7.25;2.00;;;;;13.13;97.68;101189.50;5050361;28;46707;-61
2021/11/13 08:59:23;;;;;;;;;7.75;4.00;;;;;13.21;96.92;101200.56;5052014;28;45257;-59
2021/11/13 09:01:50;;;;;;;;;3.00;1.75;;;;;13.22;97.02;101197.94;5060558;28;45473;-60
2021/11/13 09:04:17;;;;;;;;;3.00;3.00;;;;;13.25;97.07;101194.38;5051399;28;45591;-61
2021/11/13 09:06:43;;;;;;;;;5.50;5.00;;;;;13.29;96.81;101196.00;5048904;28;46188;-60
2021/11/13 09:09:09;;;;;;;;;2.00;2.00;;;;;13.28;96.51;101196.91;5049699;28;45403;-60
2021/11/13 09:11:39;;;;;;;;;6.00;4.50;;;;;13.29;96.70;101204.69;5052401;28;45257;-59
2021/11/13 09:14:08;;;;;;;;;2.00;2.00;;;;;13.31;96.24;101197.66;5049944;28;45344;-60
2021/11/13 09:16:34;;;;;;;;;2.75;2.00;;;;;13.32;96.20;101199.34;5050354;28;46366;-60
2021/11/13 09:19:00;;;;;;;;;3.00;3.00;;;;;13.32;96.14;101206.31;5046294;28;45268;-59
2021/11/13 09:21:27;;;;;;;;;3.50;2.00;;;;;13.35;96.36;101209.69;5046311;28;45292;-62
2021/11/13 09:23:53;;;;;;;;;2.00;2.00;;;;;13.44;96.14;101205.97;5049789;28;45516;-61
2021/11/13 09:26:18;;;;;;;;;2.00;2.00;;;;;13.41;96.42;101203.41;5052891;28;46125;-61
2021/11/13 09:28:44;;;;;;;;;2.00;2.00;;;;;13.39;96.54;101211.28;5060016;28;45319;-61
2021/11/13 09:31:09;;;;;;;;;3.75;2.00;;;;;13.39;96.77;101208.69;5060059;28;45378;-62
2021/11/13 09:33:35;;;;;;;;;3.00;1.75;;;;;13.43;96.95;101204.25;5059943;28;45518;-61
2021/11/13 09:36:02;;;;;;;;;2.00;2.00;;;;;13.47;96.85;101210.22;5059391;28;45345;-61
2021/11/13 09:38:32;;;;;;;;;4.00;3.00;;;;;13.53;96.60;101207.41;5055538;28;45694;-61
2021/11/13 09:41:01;;;;;;;;;4.00;4.00;;;;;13.51;96.01;101204.84;5059031;28;45407;-61
2021/11/13 09:43:28;;;;;;;;;4.50;3.00;;;;;13.56;96.43;101213.38;5060508;28;45243;-60
2021/11/13 09:45:56;;;;;;;;;4.00;3.75;;;;;13.63;96.02;101214.91;5058320;28;46990;-60
2021/11/13 09:48:22;;;;;;;;;3.50;3.50;;;;;13.66;96.28;101209.56;5057309;28;45192;-59
2021/11/13 09:50:50;;;;;;;;;5.00;4.50;;;;;13.83;95.97;101216.88;5054145;28;45516;-60
2021/11/13 09:53:18;;;;;;;;;4.00;4.00;;;;;13.94;95.62;101225.19;5050416;28;45351;-59
2021/11/13 09:55:43;;;;;;;;;4.00;4.00;;;;;14.07;95.14;101220.41;5046377;28;45861;-62
2021/11/13 09:58:09;;;;;;;;;5.75;4.00;;;;;14.14;95.10;101223.66;5048288;28;45773;-59
2021/11/13 10:00:38;;;;;;;;;4.75;4.75;;;;;14.22;94.40;101219.88;5048458;28;45464;-59
2021/11/13 10:03:05;;;;;;;;;5.00;5.00;;;;;14.25;94.14;101224.16;5048873;28;45482;-60
2021/11/13 10:05:31;;;;;;;;;5.50;5.00;;;;;14.24;93.12;101227.66;5049565;28;46206;-60
2021/11/13 10:07:57;;;;;;;;;6.25;5.00;;;;;14.24;93.70;101231.13;5046646;28;45489;-59
2021/11/13 10:10:36;;;;;;;;;7.00;5.50;;;;;14.23;93.58;101229.44;5053963;28;45446;-60
2021/11/13 10:13:03;;;;;;;;;5.75;5.75;;;;;14.21;92.97;101228.59;5051207;28;45426;-61
2021/11/13 10:15:35;;;;;;;;;5.50;4.00;;;;;14.23;93.35;101231.19;5046957;28;46101;-60
2021/11/13 10:18:17;;;;;;;;;5.00;5.00;;;;;14.32;93.26;101233.47;5047949;28;45750;-59
2021/11/13 10:20:58;;;;;;;;;6.75;5.50;;;;;14.36;92.98;101226.38;5048746;28;45552;-61
2021/11/13 10:23:26;;;;;;;;;5.75;5.75;;;;;14.34;92.19;101234.25;5042004;28;45634;-63
2021/11/13 10:26:01;;;;;;;;;18.50;12.75;;;;;14.33;92.55;101224.72;5040998;28;46178;-59
2021/11/13 10:28:28;;;;;;;;;10.00;8.25;;;;;14.35;92.09;101224.66;5047469;28;45441;-59
2021/11/13 10:31:09;;;;;;;;;10.25;7.25;;;;;14.41;91.56;101225.28;5050940;28;45407;-59
2021/11/13 10:33:35;;;;;;;;;4.75;4.75;;;;;14.42;91.40;101228.78;5051086;28;45479;-59
2021/11/13 10:36:01;;;;;;;;;6.75;5.50;;;;;14.41;92.01;101225.28;5042036;28;46193;-59
2021/11/13 10:38:27;;;;;;;;;6.00;6.00;;;;;14.46;91.71;101227.78;5047223;28;45427;-59
2021/11/13 10:40:55;;;;;;;;;10.00;7.25;;;;;14.53;90.96;101226.66;5050810;28;45149;-59
2021/11/13 10:43:40;;;;;;;;;7.50;7.50;;;;;14.58;91.55;101229.94;5048641;28;45920;-58
2021/11/13 10:46:15;;;;;;;;;9.00;7.00;;;;;14.64;91.03;101229.75;5046591;28;46391;-58
2021/11/13 10:48:46;;;;;;;;;7.25;6.75;;;;;14.55;90.06;101219.59;5049077;28;45848;-60
2021/11/13 10:51:15;;;;;;;;;9.25;8.50;;;;;14.59;89.99;101229.03;5049088;28;45431;-58
2021/11/13 10:53:42;;;;;;;;;7.00;5.00;;;;;14.56;90.08;101223.94;5049590;28;45875;-59
2021/11/13 10:56:21;;;;;;;;;9.75;6.75;;;;;14.62;90.83;101223.72;5049196;28;46710;-59
2021/11/13 10:59:04;;;;;;;;;7.00;7.00;;;;;14.67;89.89;101228.78;5050654;28;45452;-59
2021/11/13 11:01:32;;;;;;;;;10.75;7.00;;;;;14.67;90.47;101229.63;5048798;28;45606;-59
2021/11/13 11:04:07;;;;;;;;;8.50;7.00;;;;;14.72;90.12;101217.22;5053119;28;45485;-64
2021/11/13 11:06:41;;;;;;;;;6.75;5.75;;;;;14.73;89.35;101215.47;5043686;28;47498;-59
2021/11/13 11:09:20;;;;;;;;;5.25;5.25;;;;;14.68;88.65;101209.56;5050809;28;45352;-58
2021/11/13 11:11:46;;;;;;;;;7.50;6.50;;;;;14.61;89.15;101214.13;5054568;28;45484;-58
2021/11/13 11:14:17;;;;;;;;;8.75;7.50;;;;;14.63;89.54;101212.34;5055294;28;45441;-58
2021/11/13 11:16:45;;;;;;;;;9.00;7.00;;;;;14.69;89.38;101214.72;5051431;28;46238;-58
2021/11/13 11:19:17;;;;;;;;;25.00;15.25;;;;;14.69;88.66;101209.50;5043718;28;46447;-59